Terminal Aerodrome Forecast
Issued by NWS

Home | Current Version | Previous Version | Text Only | Print | Product List | Glossary On
Versions: 1 2 3 4 5 6 7 8 9 10 11 12 13 14 15 16 17 18 19 20
126
FTUS43 KDLH 252335
TAFBRD
TAF
KBRD 252335Z 2600/2624 09008KT P6SM SCT200
     FM260300 07007KT P6SM OVC025
     FM260500 07006KT P6SM BKN015 OVC025
     FM261100 06006KT 5SM BR BKN008 OVC013
     FM261700 02005KT 6SM BR BKN015 OVC025
     FM262000 36006KT P6SM SCT015 OVC025=

USA.gov is the U.S. government's official web portal to all federal, state and local government web resources and services.